Time;durP1;ratioP1;P1;durP2;ratioP2;P2;SDS_P1;SDS_P2;PMS_P1;PMS_P2;Temp;Humidity;BMP_temperature;BMP_pressure;BME280_temperature;BME280_humidity;BME280_pressure;Samples;Min_cycle;Max_cycle;Signal;HPM_P1;HPM_P2
2022/03/20 00:01:17;;;;;;;18.10;7.75;;;8.50;99.90;;;;;;6186303;23;20014;-84
2022/03/20 00:03:43;;;;;;;19.50;7.05;;;8.50;99.90;;;;;;6186198;23;20063;-85
2022/03/20 00:06:09;;;;;;;15.77;7.18;;;8.50;99.90;;;;;;6186628;23;20015;-84
2022/03/20 00:08:39;;;;;;;17.60;8.40;;;8.50;99.90;;;;;;6186275;23;20469;-84
2022/03/20 00:11:06;;;;;;;13.00;6.72;;;8.50;99.90;;;;;;6186476;23;20021;-84
2022/03/20 00:13:32;;;;;;;14.20;6.88;;;8.50;99.90;;;;;;6161626;23;20001;-85
2022/03/20 00:16:05;;;;;;;15.05;7.40;;;8.50;99.90;;;;;;6186282;23;20009;-84
2022/03/20 00:18:32;;;;;;;14.30;6.72;;;8.50;99.90;;;;;;6186371;23;20005;-84
2022/03/20 00:21:02;;;;;;;14.00;6.47;;;8.50;99.90;;;;;;6186118;23;20455;-85
2022/03/20 00:23:30;;;;;;;12.75;5.78;;;8.50;99.90;;;;;;6161255;23;20013;-85
2022/03/20 00:25:57;;;;;;;10.77;5.70;;;8.60;99.90;;;;;;6161202;23;20092;-84
2022/03/20 00:28:26;;;;;;;15.55;6.47;;;8.60;99.90;;;;;;6186254;23;20017;-85
2022/03/20 00:30:54;;;;;;;11.48;5.00;;;8.50;99.90;;;;;;6186082;23;20451;-85
2022/03/20 00:33:24;;;;;;;7.32;4.80;;;8.60;99.90;;;;;;6161188;23;20061;-84
2022/03/20 00:35:50;;;;;;;11.10;5.90;;;8.50;99.90;;;;;;6161105;23;20013;-85
2022/03/20 00:38:20;;;;;;;11.25;5.07;;;8.50;99.90;;;;;;6186087;23;20005;-85
2022/03/20 00:40:47;;;;;;;11.40;5.03;;;8.50;99.90;;;;;;6186000;23;20016;-85
2022/03/20 00:43:14;;;;;;;11.27;4.82;;;8.50;99.90;;;;;;6161216;23;20001;-85
2022/03/20 00:45:43;;;;;;;9.55;4.25;;;8.50;99.90;;;;;;6161056;23;20060;-84
2022/03/20 00:48:10;;;;;;;9.13;4.07;;;8.50;99.90;;;;;;6185987;23;20019;-84
2022/03/20 00:50:40;;;;;;;9.82;4.15;;;8.50;99.90;;;;;;6186057;23;20013;-84
2022/03/20 00:53:07;;;;;;;10.57;4.65;;;8.50;99.90;;;;;;6155995;23;20096;-84
2022/03/20 00:55:34;;;;;;;12.88;4.95;;;8.50;99.90;;;;;;6107127;23;20013;-85
2022/03/20 00:58:00;;;;;;;12.15;4.68;;;8.50;99.90;;;;;;6131538;23;20006;-84
2022/03/20 01:00:27;;;;;;;8.35;4.07;;;8.50;99.90;;;;;;6131359;23;20444;-85
2022/03/20 01:02:54;;;;;;;9.68;4.35;;;8.50;99.90;;;;;;6131422;23;20073;-84
2022/03/20 01:05:20;;;;;;;11.93;3.88;;;8.60;99.90;;;;;;6131556;23;20383;-84
2022/03/20 01:07:47;;;;;;;8.18;3.90;;;8.60;99.90;;;;;;6131391;23;20036;-85
2022/03/20 01:10:15;;;;;;;7.00;3.95;;;8.60;99.90;;;;;;6131105;23;20154;-85
2022/03/20 01:12:42;;;;;;;11.13;3.90;;;8.60;99.90;;;;;;6131314;23;20009;-84
2022/03/20 01:15:10;;;;;;;8.18;3.50;;;8.60;99.90;;;;;;6155731;23;20096;-84
2022/03/20 01:17:38;;;;;;;11.05;3.90;;;8.50;99.90;;;;;;6156318;23;20113;-84
2022/03/20 01:20:12;;;;;;;7.25;3.90;;;8.50;99.90;;;;;;6131314;23;20016;-84
2022/03/20 01:22:40;;;;;;;7.28;3.65;;;8.60;99.90;;;;;;6106947;23;20048;-85
2022/03/20 01:25:08;;;;;;;14.25;3.95;;;8.60;99.90;;;;;;6131044;23;20040;-84
2022/03/20 01:27:35;;;;;;;6.85;4.10;;;8.60;99.90;;;;;;6131891;23;20317;-84
2022/03/20 01:30:04;;;;;;;7.75;3.90;;;8.50;99.90;;;;;;6131378;23;20013;-84
2022/03/20 01:32:30;;;;;;;11.90;4.40;;;8.60;99.90;;;;;;6131332;23;20012;-84
2022/03/20 01:35:00;;;;;;;8.07;3.83;;;8.60;99.90;;;;;;6131316;23;20009;-84
2022/03/20 01:37:27;;;;;;;8.13;4.15;;;8.50;99.90;;;;;;6131248;23;20335;-85
2022/03/20 01:39:54;;;;;;;8.10;4.38;;;8.50;99.90;;;;;;6155626;23;20090;-84
2022/03/20 01:42:22;;;;;;;6.85;3.63;;;8.50;99.90;;;;;;6131271;23;20001;-84
2022/03/20 01:44:52;;;;;;;8.43;4.20;;;8.50;99.90;;;;;;6155630;23;20013;-84
2022/03/20 01:47:21;;;;;;;7.07;3.55;;;8.60;99.90;;;;;;6106701;23;20080;-84
2022/03/20 01:49:51;;;;;;;11.75;3.90;;;8.60;99.90;;;;;;6155562;23;20022;-84
2022/03/20 01:52:24;;;;;;;7.70;3.75;;;8.60;99.90;;;;;;6133960;23;20005;-84
2022/03/20 01:54:54;;;;;;;7.83;3.63;;;8.50;99.90;;;;;;6185505;23;20498;-84
2022/03/20 01:57:23;;;;;;;6.38;3.33;;;8.50;99.90;;;;;;6160585;23;20075;-84
2022/03/20 01:59:52;;;;;;;6.18;3.22;;;8.50;99.90;;;;;;6160693;23;20036;-85
2022/03/20 02:02:19;;;;;;;9.50;4.55;;;8.50;99.90;;;;;;6160721;23;20011;-84
2022/03/20 02:04:46;;;;;;;10.18;3.45;;;8.50;99.90;;;;;;6160527;23;20013;-85
2022/03/20 02:07:15;;;;;;;7.50;3.65;;;8.50;99.90;;;;;;6160559;23;20151;-84
2022/03/20 02:09:42;;;;;;;7.13;4.20;;;8.50;99.90;;;;;;6185455;23;20009;-84
2022/03/20 02:12:12;;;;;;;8.93;3.83;;;8.50;99.90;;;;;;6160309;23;20005;-84
2022/03/20 02:14:39;;;;;;;8.13;3.95;;;8.50;99.90;;;;;;6160623;23;20013;-84
2022/03/20 02:17:11;;;;;;;6.53;3.67;;;8.50;99.90;;;;;;6160533;23;20001;-84
2022/03/20 02:19:39;;;;;;;9.30;4.05;;;8.50;99.90;;;;;;6160549;23;20013;-84
2022/03/20 02:22:06;;;;;;;5.47;3.38;;;8.50;99.90;;;;;;6160920;23;20462;-84
2022/03/20 02:24:46;;;;;;;8.60;4.22;;;8.50;99.90;;;;;;6162429;23;20036;-84
2022/03/20 02:27:24;;;;;;;9.70;4.05;;;8.40;99.90;;;;;;6162589;23;20009;-84
2022/03/20 02:30:03;;;;;;;5.90;3.55;;;8.40;99.90;;;;;;6162382;23;20024;-85
2022/03/20 02:32:32;;;;;;;10.93;3.97;;;8.40;99.90;;;;;;6162292;23;20005;-84
2022/03/20 02:35:03;;;;;;;7.38;3.80;;;8.40;99.90;;;;;;6162357;23;20005;-84
2022/03/20 02:37:30;;;;;;;7.85;3.53;;;8.40;99.90;;;;;;6162402;23;20001;-85
2022/03/20 02:40:00;;;;;;;6.82;3.40;;;8.40;99.90;;;;;;6162246;23;20013;-84
2022/03/20 02:42:30;;;;;;;9.32;3.10;;;8.40;99.90;;;;;;6162042;23;20116;-84
2022/03/20 02:45:07;;;;;;;8.13;3.35;;;8.50;99.90;;;;;;6187114;23;20009;-84
2022/03/20 02:47:37;;;;;;;9.52;3.53;;;8.50;99.90;;;;;;6162395;23;20009;-84
2022/03/20 02:50:24;;;;;;;9.55;3.10;;;8.50;99.90;;;;;;6162143;23;20021;-84
2022/03/20 02:53:14;;;;;;;7.03;3.25;;;8.50;99.90;;;;;;6156995;23;20502;-84
2022/03/20 02:55:45;;;;;;;6.93;3.30;;;8.50;99.90;;;;;;6132604;23;20009;-85
2022/03/20 02:58:16;;;;;;;5.47;3.05;;;8.50;99.90;;;;;;6132692;23;20009;-85
2022/03/20 03:00:44;;;;;;;7.47;3.58;;;8.50;99.90;;;;;;6108337;23;20016;-84
2022/03/20 03:03:17;;;;;;;7.82;3.42;;;8.50;99.90;;;;;;6132585;23;20005;-84
2022/03/20 03:05:45;;;;;;;10.75;4.18;;;8.50;99.90;;;;;;6108027;23;20010;-85
2022/03/20 03:11:01;;;;;;;4.53;2.78;;;8.50;99.90;;;;;;6132515;23;20017;-85
2022/03/20 03:13:37;;;;;;;5.47;3.17;;;8.50;99.90;;;;;;6132630;23;20002;-84
2022/03/20 03:16:08;;;;;;;8.25;3.95;;;8.50;99.90;;;;;;6132191;23;20499;-83
2022/03/20 03:18:36;;;;;;;13.57;3.10;;;8.50;99.90;;;;;;6156889;23;20013;-85
2022/03/20 03:21:04;;;;;;;8.68;3.67;;;8.40;99.90;;;;;;6156705;23;20016;-84
2022/03/20 03:23:31;;;;;;;9.65;3.47;;;8.40;99.90;;;;;;6156939;23;20064;-85
2022/03/20 03:25:58;;;;;;;10.90;4.22;;;8.30;99.90;;;;;;6132432;23;20037;-84
2022/03/20 03:28:35;;;;;;;9.45;3.88;;;8.30;99.90;;;;;;6132605;23;20040;-85
2022/03/20 03:31:04;;;;;;;10.10;3.95;;;8.30;99.90;;;;;;6132362;23;20105;-84
2022/03/20 03:33:35;;;;;;;7.18;3.70;;;8.40;99.90;;;;;;6156272;23;20088;-84
2022/03/20 03:36:01;;;;;;;4.65;3.28;;;8.40;99.90;;;;;;6132291;23;20010;-84
2022/03/20 03:38:30;;;;;;;5.75;3.55;;;8.40;99.90;;;;;;6156842;23;20010;-84
2022/03/20 03:40:59;;;;;;;9.38;3.35;;;8.40;99.90;;;;;;6156719;23;20467;-85
2022/03/20 03:43:27;;;;;;;6.03;3.75;;;8.40;99.90;;;;;;6132101;23;20009;-85
2022/03/20 03:45:56;;;;;;;10.15;4.15;;;8.30;99.90;;;;;;6132148;23;20005;-84
2022/03/20 03:48:26;;;;;;;6.72;3.47;;;8.30;99.90;;;;;;6132262;23;20016;-85
2022/03/20 03:50:54;;;;;;;7.72;3.67;;;8.20;99.90;;;;;;6132324;23;20507;-84
2022/03/20 03:53:21;;;;;;;16.52;4.68;;;8.20;99.90;;;;;;6131803;23;20017;-84
2022/03/20 03:55:48;;;;;;;8.63;3.88;;;8.10;99.90;;;;;;6181634;23;20016;-84
2022/03/20 03:58:18;;;;;;;6.95;3.63;;;8.00;99.90;;;;;;6181504;23;20002;-84
2022/03/20 04:00:44;;;;;;;6.72;3.17;;;7.90;99.90;;;;;;6181463;23;20012;-84
2022/03/20 04:03:12;;;;;;;8.50;3.92;;;7.90;99.90;;;;;;6181433;23;20009;-83
2022/03/20 04:05:40;;;;;;;7.32;3.72;;;7.80;99.90;;;;;;6181463;23;20331;-84
2022/03/20 04:08:08;;;;;;;11.85;4.03;;;7.70;99.90;;;;;;6181416;23;20088;-84
2022/03/20 04:10:41;;;;;;;8.05;4.53;;;7.60;99.90;;;;;;6181355;23;20076;-84
2022/03/20 04:13:23;;;;;;;8.77;3.95;;;7.60;99.90;;;;;;6181297;23;20009;-84
2022/03/20 04:15:50;;;;;;;10.50;4.35;;;7.50;99.90;;;;;;6181339;23;20494;-83
2022/03/20 04:18:20;;;;;;;11.02;4.28;;;7.50;99.90;;;;;;6181055;23;20001;-84
2022/03/20 04:20:47;;;;;;;7.88;3.85;;;7.50;99.90;;;;;;6181291;23;20093;-84
2022/03/20 04:26:03;;;;;;;7.18;3.95;;;7.40;99.90;;;;;;6181145;23;20014;-85
2022/03/20 04:28:30;;;;;;;10.40;4.10;;;7.40;99.90;;;;;;6181388;23;20092;-85
2022/03/20 04:30:57;;;;;;;12.35;4.20;;;7.30;99.90;;;;;;6181293;23;20044;-84
2022/03/20 04:33:24;;;;;;;8.73;4.20;;;7.30;99.90;;;;;;6181383;23;20029;-84
2022/03/20 04:35:58;;;;;;;11.05;4.50;;;7.30;99.90;;;;;;6181149;23;20017;-84
2022/03/20 04:38:26;;;;;;;10.27;4.50;;;7.40;99.90;;;;;;6181058;23;20013;-84
2022/03/20 04:40:59;;;;;;;8.57;4.22;;;7.30;99.90;;;;;;6181134;23;20080;-84
2022/03/20 04:43:27;;;;;;;13.25;4.60;;;7.20;99.90;;;;;;6181318;23;20064;-84
2022/03/20 04:45:56;;;;;;;9.85;4.70;;;7.40;99.90;;;;;;6180564;23;20006;-84
2022/03/20 04:59:26;;;;;;;10.85;4.30;;;7.30;99.90;;;;;;6180934;23;20014;-84
2022/03/20 05:01:59;;;;;;;7.90;4.57;;;7.30;99.90;;;;;;6180924;23;20002;-85
2022/03/20 05:04:25;;;;;;;11.82;4.65;;;7.30;99.90;;;;;;6180919;23;20010;-85
2022/03/20 05:06:53;;;;;;;13.25;5.28;;;7.40;99.90;;;;;;6180716;23;20009;-84
2022/03/20 05:14:59;;;;;;;14.25;4.60;;;7.40;99.90;;;;;;6180812;23;20009;-86
2022/03/20 05:17:28;;;;;;;11.27;4.97;;;7.40;99.90;;;;;;6180855;23;20012;-86
2022/03/20 05:19:55;;;;;;;13.10;4.88;;;7.40;99.90;;;;;;6181074;23;20005;-85
2022/03/20 05:22:21;;;;;;;11.45;4.95;;;7.40;99.90;;;;;;6180882;23;20010;-85
2022/03/20 05:24:48;;;;;;;10.60;4.65;;;7.40;99.90;;;;;;6180691;23;20005;-85
2022/03/20 05:27:14;;;;;;;8.93;4.50;;;7.40;99.90;;;;;;6180786;23;20029;-84
2022/03/20 05:29:41;;;;;;;12.18;5.40;;;7.50;99.90;;;;;;6180579;23;20068;-84
2022/03/20 05:32:09;;;;;;;10.45;4.55;;;7.60;99.90;;;;;;6180715;23;20001;-85
2022/03/20 05:34:37;;;;;;;12.07;5.47;;;7.40;99.90;;;;;;6180377;23;20344;-86
2022/03/20 05:37:06;;;;;;;11.65;4.85;;;7.40;99.90;;;;;;6180649;23;20368;-84
2022/03/20 05:39:42;;;;;;;11.45;5.00;;;7.40;99.90;;;;;;6180606;23;20436;-85
2022/03/20 05:42:09;;;;;;;9.57;5.00;;;7.30;99.90;;;;;;6180684;23;20064;-84
2022/03/20 05:44:35;;;;;;;12.45;5.38;;;7.30;99.90;;;;;;6180749;23;20479;-84
2022/03/20 05:47:08;;;;;;;13.15;5.28;;;7.40;99.90;;;;;;6180535;23;20009;-85
2022/03/20 05:49:35;;;;;;;12.23;5.43;;;7.50;99.90;;;;;;6180401;23;20044;-84
2022/03/20 05:52:01;;;;;;;9.70;5.75;;;7.60;99.90;;;;;;6180464;23;20009;-84
2022/03/20 05:54:28;;;;;;;10.35;4.50;;;7.40;99.90;;;;;;6185397;23;20020;-85
2022/03/20 05:59:40;;;;;;;10.07;4.95;;;7.60;99.90;;;;;;6185412;23;20048;-84
2022/03/20 06:02:10;;;;;;;11.85;4.93;;;7.60;99.90;;;;;;6185558;23;20012;-85
2022/03/20 06:04:38;;;;;;;9.27;4.20;;;7.70;99.90;;;;;;6185262;23;20016;-84
2022/03/20 06:07:05;;;;;;;10.63;4.43;;;7.80;99.90;;;;;;6160755;23;20096;-85
2022/03/20 06:09:32;;;;;;;9.95;4.53;;;7.70;99.90;;;;;;6185307;23;20021;-85
2022/03/20 06:11:59;;;;;;;8.27;5.13;;;7.60;99.90;;;;;;6160584;23;20084;-84
2022/03/20 06:14:25;;;;;;;11.15;5.38;;;7.70;99.90;;;;;;6160578;23;20009;-85
2022/03/20 06:16:56;;;;;;;8.85;4.90;;;7.60;99.90;;;;;;6160288;23;20005;-85
2022/03/20 06:19:22;;;;;;;16.50;5.03;;;7.80;99.90;;;;;;6160414;23;20009;-85
2022/03/20 06:21:49;;;;;;;8.55;4.82;;;7.80;99.90;;;;;;6160658;23;20446;-85
2022/03/20 06:24:16;;;;;;;8.85;4.78;;;7.70;99.90;;;;;;6160635;23;20005;-85
2022/03/20 06:26:42;;;;;;;8.50;4.55;;;7.60;99.90;;;;;;6185241;23;20013;-84
2022/03/20 06:29:09;;;;;;;10.77;5.07;;;7.70;99.90;;;;;;6160524;23;20399;-85
2022/03/20 06:31:36;;;;;;;13.00;4.95;;;7.70;99.90;;;;;;6185440;23;20020;-87
2022/03/20 06:34:05;;;;;;;10.98;4.40;;;7.70;99.90;;;;;;6160417;23;20091;-84
2022/03/20 06:36:32;;;;;;;14.30;5.63;;;7.80;99.90;;;;;;6185438;23;20005;-87
2022/03/20 06:38:59;;;;;;;10.25;5.05;;;7.80;99.90;;;;;;6160562;23;20009;-86
2022/03/20 06:41:26;;;;;;;12.00;4.70;;;7.80;99.90;;;;;;6185068;23;20012;-88
2022/03/20 06:43:53;;;;;;;8.45;3.88;;;7.80;99.90;;;;;;6160418;23;20009;-83
2022/03/20 06:46:21;;;;;;;13.13;4.72;;;7.80;99.90;;;;;;6160459;23;20020;-85
2022/03/20 06:48:48;;;;;;;9.73;4.50;;;7.80;99.90;;;;;;6184977;23;20086;-84
2022/03/20 06:51:17;;;;;;;7.40;4.38;;;7.80;99.90;;;;;;6160722;23;20084;-88
2022/03/20 06:53:44;;;;;;;7.90;4.68;;;7.90;99.90;;;;;;6179887;23;20021;-88
2022/03/20 06:56:10;;;;;;;10.02;4.18;;;7.90;99.90;;;;;;6155490;23;20020;-88
2022/03/20 06:58:44;;;;;;;10.43;5.22;;;7.90;99.90;;;;;;6180399;23;20010;-89
2022/03/20 07:01:10;;;;;;;7.67;4.40;;;8.10;99.90;;;;;;6180312;23;20048;-91
2022/03/20 07:03:38;;;;;;;12.63;4.45;;;8.20;99.90;;;;;;6180234;23;20257;-86
2022/03/20 07:06:04;;;;;;;7.82;4.13;;;8.30;99.90;;;;;;6180154;23;20009;-91
2022/03/20 07:08:37;;;;;;;9.15;4.28;;;8.30;99.90;;;;;;6181190;23;20033;-88
2022/03/20 07:11:04;;;;;;;9.40;4.15;;;8.40;99.90;;;;;;6182177;23;20355;-88
2022/03/20 07:13:48;;;;;;;7.10;3.97;;;8.50;99.90;;;;;;6182302;23;20029;-90
2022/03/20 07:16:16;;;;;;;7.30;4.07;;;8.60;99.90;;;;;;6182178;23;20010;-89
2022/03/20 07:18:47;;;;;;;7.95;3.80;;;8.80;99.90;;;;;;6182222;23;20006;-88
2022/03/20 07:21:19;;;;;;;11.40;4.95;;;8.90;99.90;;;;;;6181939;23;20064;-89
2022/03/20 07:23:46;;;;;;;9.25;4.63;;;9.10;99.90;;;;;;6182059;23;20083;-87
2022/03/20 07:31:42;;;;;;;7.93;3.72;;;9.60;99.90;;;;;;6182132;23;20013;-90
2022/03/20 07:34:09;;;;;;;7.00;3.80;;;9.60;99.90;;;;;;6181829;23;20009;-88
2022/03/20 07:36:36;;;;;;;8.00;4.32;;;9.80;99.90;;;;;;6181836;23;20015;-89
2022/03/20 07:39:03;;;;;;;6.70;3.88;;;9.80;99.90;;;;;;6181679;23;20517;-93
2022/03/20 07:41:36;;;;;;;10.07;4.53;;;10.00;99.90;;;;;;6182520;23;20490;-92
2022/03/20 07:44:03;;;;;;;8.07;4.03;;;10.20;99.90;;;;;;6181674;23;20010;-87
2022/03/20 07:46:30;;;;;;;9.77;4.68;;;10.60;99.90;;;;;;6181759;23;20096;-88
2022/03/20 07:48:58;;;;;;;10.38;4.45;;;10.90;99.90;;;;;;6181618;23;20439;-89
2022/03/20 07:51:26;;;;;;;7.40;4.38;;;11.10;99.90;;;;;;6183857;23;20017;-94
2022/03/20 07:53:53;;;;;;;6.97;4.13;;;11.00;99.90;;;;;;6181593;23;20021;-91
2022/03/20 07:56:22;;;;;;;8.93;4.40;;;11.30;99.90;;;;;;6181577;23;20010;-89
2022/03/20 07:58:50;;;;;;;12.18;4.65;;;11.50;99.90;;;;;;6181478;23;20013;-89
2022/03/20 08:01:17;;;;;;;6.65;3.80;;;11.50;99.90;;;;;;6181738;23;20005;-89
2022/03/20 08:03:43;;;;;;;7.68;3.22;;;11.50;99.90;;;;;;6181782;23;20013;-91
2022/03/20 08:06:37;;;;;;;5.47;3.05;;;11.10;99.90;;;;;;6186990;23;20088;-93
2022/03/20 08:09:03;;;;;;;5.63;3.00;;;11.30;99.90;;;;;;6046988;23;20070;-84
2022/03/20 08:11:31;;;;;;;9.30;3.88;;;11.30;99.90;;;;;;6025321;23;20059;-93
2022/03/20 08:13:58;;;;;;;8.25;4.43;;;11.40;99.90;;;;;;6023482;23;20007;-93
2022/03/20 08:16:29;;;;;;;7.30;3.53;;;11.60;99.90;;;;;;6020431;23;20015;-91
2022/03/20 08:18:56;;;;;;;9.88;4.20;;;11.30;99.90;;;;;;6020755;23;20141;-92
2022/03/20 08:21:24;;;;;;;8.35;3.58;;;11.30;99.90;;;;;;6040494;23;20011;-93
2022/03/20 08:23:51;;;;;;;8.32;4.18;;;11.50;99.90;;;;;;6021551;23;20081;-92
2022/03/20 08:26:17;;;;;;;7.28;3.20;;;11.70;99.90;;;;;;6020699;23;20014;-93
2022/03/20 08:28:45;;;;;;;6.50;3.00;;;12.20;99.90;;;;;;6020966;23;20007;-92
2022/03/20 08:31:19;;;;;;;8.82;3.95;;;12.80;99.90;;;;;;6020415;23;20026;-88
2022/03/20 08:33:46;;;;;;;6.00;3.22;;;13.20;99.90;;;;;;6021397;23;20481;-87
2022/03/20 08:36:14;;;;;;;5.88;3.70;;;13.80;99.90;;;;;;6020585;23;20524;-91
2022/03/20 08:38:41;;;;;;;13.55;2.88;;;14.60;99.90;;;;;;6020722;23;20014;-90
2022/03/20 08:41:08;;;;;;;7.65;3.25;;;14.70;99.90;;;;;;6020344;23;20369;-90
2022/03/20 08:43:55;;;;;;;2.50;1.90;;;14.20;99.90;;;;;;6020572;23;20043;-91
2022/03/20 08:46:23;;;;;;;6.38;2.55;;;14.10;99.90;;;;;;6125826;23;20084;-90
2022/03/20 08:49:03;;;;;;;;;;;;;;;;;;;;;
2022/03/20 08:51:58;;;;;;;4.22;2.22;;;13.20;99.90;;;;;;6157000;23;20041;-90
2022/03/20 08:54:27;;;;;;;5.72;3.45;;;13.50;99.90;;;;;;6155946;23;20017;-88
2022/03/20 08:56:53;;;;;;;7.07;3.25;;;13.40;99.90;;;;;;6182202;23;20040;-88
2022/03/20 08:59:20;;;;;;;7.35;3.25;;;13.10;99.90;;;;;;6181398;23;20060;-93
2022/03/20 09:01:47;;;;;;;4.65;2.53;;;12.80;99.90;;;;;;6181064;23;20013;-90
2022/03/20 09:04:13;;;;;;;3.25;2.10;;;12.80;99.90;;;;;;6181341;23;20424;-86
2022/03/20 09:06:43;;;;;;;4.95;2.13;;;12.70;99.90;;;;;;6181243;23;20467;-87
2022/03/20 09:09:13;;;;;;;4.80;2.40;;;12.30;99.90;;;;;;6180785;23;20044;-89
2022/03/20 09:11:41;;;;;;;4.13;2.30;;;12.00;99.90;;;;;;6180865;23;20052;-90
2022/03/20 09:14:08;;;;;;;4.38;2.10;;;11.70;99.90;;;;;;6181123;23;20009;-88
2022/03/20 09:19:21;;;;;;;7.22;2.67;;;11.30;99.90;;;;;;6180809;23;20015;-90
2022/03/20 09:21:51;;;;;;;3.70;2.55;;;11.40;99.90;;;;;;6180027;23;20006;-89
2022/03/20 09:24:18;;;;;;;4.47;2.65;;;11.50;99.90;;;;;;6181075;23;20432;-89
2022/03/20 09:26:44;;;;;;;5.18;2.35;;;11.70;99.90;;;;;;6155891;23;20428;-87
2022/03/20 09:29:11;;;;;;;6.30;2.67;;;11.80;99.90;;;;;;6180710;23;20018;-87
2022/03/20 09:31:37;;;;;;;3.95;2.47;;;12.00;99.90;;;;;;6180886;23;20010;-86
2022/03/20 09:34:07;;;;;;;5.20;2.55;;;12.00;99.90;;;;;;6180735;23;20344;-87
2022/03/20 09:36:35;;;;;;;4.65;2.17;;;12.00;99.90;;;;;;6180490;23;20009;-86
2022/03/20 09:39:02;;;;;;;4.18;2.35;;;12.30;99.90;;;;;;6180414;23;20105;-86
2022/03/20 09:41:32;;;;;;;5.55;2.30;;;12.50;99.90;;;;;;6180753;23;20336;-86
2022/03/20 09:44:05;;;;;;;4.50;2.35;;;12.70;99.90;;;;;;6180658;23;20343;-84
2022/03/20 09:46:33;;;;;;;3.90;2.30;;;12.90;99.90;;;;;;6180756;23;20010;-85
2022/03/20 09:49:20;;;;;;;4.82;2.83;;;12.90;99.90;;;;;;6186997;23;20010;-95
2022/03/20 09:51:46;;;;;;;7.03;3.13;;;12.90;99.90;;;;;;6181631;23;20014;-87
2022/03/20 09:54:16;;;;;;;7.57;2.90;;;13.00;99.90;;;;;;6184679;23;20022;-94
2022/03/20 09:56:43;;;;;;;5.05;2.58;;;13.10;99.90;;;;;;6156736;23;20327;-92
2022/03/20 10:00:11;;;;;;;7.22;3.55;;;13.00;99.90;;;;;;6181041;23;20009;-95
2022/03/20 10:02:44;;;;;;;18.48;7.18;;;12.70;99.90;;;;;;6189350;23;20039;-93
2022/03/20 10:05:18;;;;;;;6.47;3.25;;;12.40;99.90;;;;;;6166738;23;20023;-93
2022/03/20 10:07:45;;;;;;;6.20;2.78;;;12.30;99.90;;;;;;6165265;23;20012;-93
2022/03/20 10:10:38;;;;;;;2.35;1.55;;;12.10;99.90;;;;;;6161173;23;20355;-93
2022/03/20 10:13:32;;;;;;;3.60;1.75;;;12.00;99.90;;;;;;6066966;23;20002;-93
2022/03/20 10:16:24;;;;;;;6.78;2.30;;;11.60;99.90;;;;;;6067448;23;20106;-95
2022/03/20 10:18:51;;;;;;;2.70;2.08;;;11.50;99.90;;;;;;6043128;23;20010;-93
2022/03/20 10:21:59;;;;;;;5.50;3.05;;;11.50;99.90;;;;;;6069159;23;20011;-93
2022/03/20 10:28:00;;;;;;;5.60;2.55;;;11.60;99.90;;;;;;6217771;23;20063;-93
2022/03/20 10:30:26;;;;;;;4.25;2.22;;;11.30;99.90;;;;;;6135967;23;20107;-93
2022/03/20 10:32:57;;;;;;;7.22;2.20;;;11.40;99.90;;;;;;6137480;23;20013;-93
2022/03/20 10:35:24;;;;;;;3.55;1.92;;;11.40;99.90;;;;;;6136301;23;20005;-93
2022/03/20 10:38:05;;;;;;;6.60;2.38;;;11.60;99.90;;;;;;6136363;23;20060;-93
2022/03/20 10:40:35;;;;;;;2.97;1.67;;;11.60;99.90;;;;;;6138415;23;20013;-93
2022/03/20 10:43:12;;;;;;;2.38;1.83;;;11.70;99.90;;;;;;6137439;23;20056;-94
2022/03/20 10:45:56;;;;;;;1.92;1.58;;;11.50;99.90;;;;;;6137792;23;20013;-93
2022/03/20 10:48:38;;;;;;;1.75;1.65;;;11.50;99.90;;;;;;6137520;23;20041;-93
2022/03/20 10:51:07;;;;;;;3.42;1.80;;;11.50;99.90;;;;;;6138067;23;20387;-93
2022/03/20 10:53:35;;;;;;;6.43;2.75;;;11.60;99.90;;;;;;6138244;23;20080;-92
2022/03/20 10:56:09;;;;;;;8.93;2.30;;;11.70;99.90;;;;;;6137577;23;20068;-93
2022/03/20 10:58:39;;;;;;;2.90;1.73;;;11.60;99.90;;;;;;6161894;23;20072;-94
2022/03/20 11:01:09;;;;;;;3.58;2.20;;;11.70;99.90;;;;;;6133108;23;20405;-92
2022/03/20 11:03:38;;;;;;;4.30;2.40;;;11.90;99.90;;;;;;6137702;23;20013;-93
2022/03/20 11:06:10;;;;;;;3.58;1.80;;;12.10;99.90;;;;;;6137478;23;20005;-93
2022/03/20 11:08:37;;;;;;;3.25;1.73;;;12.20;99.90;;;;;;6139050;23;20013;-94
2022/03/20 11:11:09;;;;;;;1.90;1.45;;;12.20;99.90;;;;;;6138391;23;20039;-94
2022/03/20 11:13:41;;;;;;;6.35;2.13;;;12.30;99.90;;;;;;6137669;23;20339;-94
2022/03/20 11:16:09;;;;;;;2.90;1.90;;;12.30;99.90;;;;;;6137532;23;20009;-94
2022/03/20 11:18:38;;;;;;;1.88;1.60;;;12.40;99.90;;;;;;6137342;23;20008;-92
2022/03/20 11:21:06;;;;;;;2.03;1.70;;;12.40;99.90;;;;;;6137650;23;20013;-92
2022/03/20 11:23:35;;;;;;;6.38;3.25;;;12.50;99.90;;;;;;6137452;23;20092;-93
2022/03/20 11:26:03;;;;;;;4.47;2.10;;;12.50;99.90;;;;;;6136758;23;20034;-93
2022/03/20 11:28:43;;;;;;;3.83;2.25;;;12.40;99.90;;;;;;6138101;23;20005;-93
2022/03/20 11:31:15;;;;;;;4.45;1.73;;;12.20;99.90;;;;;;6142633;23;20082;-92
2022/03/20 11:33:44;;;;;;;3.20;1.90;;;12.00;99.90;;;;;;6137704;23;20501;-93
2022/03/20 11:36:17;;;;;;;3.38;2.22;;;12.00;99.90;;;;;;6138714;23;20006;-93
2022/03/20 11:38:43;;;;;;;3.33;2.03;;;11.80;99.90;;;;;;6136595;23;20020;-92
2022/03/20 11:41:24;;;;;;;6.75;3.58;;;11.80;99.90;;;;;;6137154;23;20085;-92
2022/03/20 11:44:14;;;;;;;4.97;2.20;;;12.00;99.90;;;;;;6136854;23;20020;-93
2022/03/20 11:46:43;;;;;;;2.30;1.77;;;12.20;99.90;;;;;;6137568;23;20092;-93
2022/03/20 11:49:17;;;;;;;2.40;2.05;;;12.10;99.90;;;;;;6136982;23;20017;-93
2022/03/20 11:52:03;;;;;;;2.10;1.67;;;12.00;99.90;;;;;;6137385;23;20070;-92
2022/03/20 11:54:31;;;;;;;4.10;2.10;;;11.90;99.90;;;;;;6137900;23;20009;-93
2022/03/20 11:57:00;;;;;;;3.42;1.95;;;12.10;99.90;;;;;;6140556;23;20009;-93
2022/03/20 11:59:47;;;;;;;7.38;4.53;;;12.00;99.90;;;;;;6137517;23;20013;-93
2022/03/20 12:02:16;;;;;;;12.32;5.07;;;12.00;99.90;;;;;;6137175;23;20107;-93
2022/03/20 12:04:47;;;;;;;6.70;2.70;;;11.60;99.90;;;;;;6137320;23;20001;-93
2022/03/20 12:07:24;;;;;;;3.42;2.17;;;11.80;99.90;;;;;;6137790;23;20005;-92
2022/03/20 12:10:16;;;;;;;2.67;1.98;;;12.00;99.90;;;;;;6137326;23;20037;-93
2022/03/20 12:13:16;;;;;;;3.15;2.22;;;12.00;99.90;;;;;;6137432;23;20381;-92
2022/03/20 12:15:44;;;;;;;4.20;2.00;;;11.90;99.90;;;;;;6137196;23;20013;-93
2022/03/20 12:18:12;;;;;;;4.38;2.30;;;11.80;99.90;;;;;;6137085;23;20009;-91
2022/03/20 12:21:02;;;;;;;6.28;2.28;;;11.80;99.90;;;;;;6161669;23;20024;-92
2022/03/20 12:23:43;;;;;;;3.60;2.15;;;11.80;99.90;;;;;;6161364;23;20036;-92
2022/03/20 12:26:37;;;;;;;2.65;1.92;;;11.90;99.90;;;;;;6133762;23;20428;-92
2022/03/20 12:29:29;;;;;;;3.40;2.53;;;11.80;99.90;;;;;;6137045;23;20021;-92
2022/03/20 12:32:11;;;;;;;7.75;3.38;;;11.90;99.90;;;;;;6137213;23;20332;-91
2022/03/20 12:34:38;;;;;;;6.93;3.28;;;11.30;99.90;;;;;;6137570;23;20016;-93
2022/03/20 12:37:30;;;;;;;3.85;2.17;;;11.30;99.90;;;;;;6137139;23;20029;-94
2022/03/20 12:40:05;;;;;;;8.30;2.40;;;11.60;99.90;;;;;;6141881;23;20013;-92
2022/03/20 12:42:33;;;;;;;5.18;2.40;;;11.70;99.90;;;;;;6137397;23;20005;-93
2022/03/20 12:45:03;;;;;;;3.33;2.42;;;11.80;99.90;;;;;;6137525;23;20009;-91
2022/03/20 12:47:35;;;;;;;4.25;2.13;;;12.00;99.90;;;;;;6141137;23;20009;-93
2022/03/20 12:50:09;;;;;;;3.38;1.95;;;12.00;99.90;;;;;;6137631;23;20021;-92
2022/03/20 12:52:38;;;;;;;3.63;1.70;;;12.10;99.90;;;;;;6139372;23;20457;-93
2022/03/20 12:55:07;;;;;;;3.53;2.25;;;12.10;99.90;;;;;;6137500;23;20037;-93
2022/03/20 12:58:12;;;;;;;2.83;2.03;;;12.10;99.90;;;;;;6104453;23;20009;-93
2022/03/20 13:00:59;;;;;;;4.32;1.85;;;12.10;99.90;;;;;;6108388;23;20020;-94
2022/03/20 13:03:26;;;;;;;7.53;2.03;;;12.10;99.90;;;;;;6102619;23;20009;-94
2022/03/20 13:05:57;;;;;;;3.20;2.05;;;12.00;99.90;;;;;;6101851;23;20203;-90
2022/03/20 13:08:28;;;;;;;5.95;3.35;;;12.00;99.90;;;;;;6101340;23;20006;-89
2022/03/20 13:11:00;;;;;;;3.10;2.10;;;12.20;99.90;;;;;;6077749;23;20022;-89
2022/03/20 13:13:30;;;;;;;7.68;2.85;;;12.20;99.90;;;;;;6077765;23;20113;-89
2022/03/20 13:15:57;;;;;;;5.80;2.33;;;12.20;99.90;;;;;;6077545;23;20037;-90
2022/03/20 13:18:25;;;;;;;4.65;2.30;;;12.00;99.90;;;;;;6102120;23;20708;-90
2022/03/20 13:20:52;;;;;;;4.70;1.90;;;12.00;99.90;;;;;;6101393;23;20005;-90
2022/03/20 13:23:21;;;;;;;4.40;2.30;;;12.10;99.90;;;;;;6101689;23;20010;-88
2022/03/20 13:25:53;;;;;;;3.13;1.80;;;12.10;99.90;;;;;;6078231;23;20006;-89
2022/03/20 13:28:30;;;;;;;6.72;2.95;;;11.70;99.90;;;;;;6120107;23;20017;-89
2022/03/20 13:31:12;;;;;;;5.88;2.40;;;11.60;99.90;;;;;;6144226;23;20021;-90
2022/03/20 13:33:52;;;;;;;9.00;3.78;;;11.30;99.90;;;;;;6142322;23;20033;-89
2022/03/20 13:36:24;;;;;;;4.25;2.22;;;11.30;99.90;;;;;;6136411;23;20012;-90
2022/03/20 13:38:53;;;;;;;7.38;3.40;;;11.60;99.90;;;;;;6160675;23;20069;-90
2022/03/20 13:41:22;;;;;;;7.50;2.90;;;11.60;99.90;;;;;;6136081;23;20080;-88
2022/03/20 13:43:56;;;;;;;9.48;4.10;;;11.90;99.90;;;;;;6136385;23;20012;-89
2022/03/20 13:46:29;;;;;;;4.28;3.10;;;12.00;99.90;;;;;;6136456;23;20013;-90